Portada
METAR-TAF:

METAR-TAF

Aeroports :

Dzaoudzi, Mayotte

latitud: 12-48S, longitud: 045-17E, altitud: 8 m

Observació

L'informe es va fer fa 38 minuts, a les 11:00 UTC
Vent 6 kt del Sud-Est, variant entre Est i Sud
Temperatura 30°C
Humitat 66%
Pressió 1012 hPa
Visibilitat 10 km o més
sense núvols per sota de 1500 mi sense presència de cumulonimbus.

METAR: FMCZ 221100Z AUTO 13006KT 090V170 CAVOK 30/23 Q1012 NOSIG

Hora: 14:38 (11:38 UTC)

Pronòstic

L'informe es va fer fa 38 minuts, a les 11:00 UTC
Pronòstic vàlid del 22 a les 12 UTC al 23 a les 12 UTC
Vent 6 kt del Sud/Sud-Est
Visibilitat 10 km o més
Escasses núvols a una alçada de 2500 ft
Temporalment
l' 22 a les 15 UTC al 22 a les 23 UTC
Vent 10 kt del Nord/Nord-Oest

TAF: FMCZ 221100Z 2212/2312 15006KT 9999 FEW025 TEMPO 2215/2223 34010KT

Observacions i pronòstics meteorològics de més de 4000 aeroports (METAR i TAF).

Les estacions disponibles són els punts grocs i vermells al mapa.

Posi el ratolí al punt desitjat per veure el nom de l'estació.

Feu clic per veure les observacions i els pronòstics meteorològics.

Per canviar el mapa: feu clic els botons verds amb una creu de color negre per apropar; al botó verd amb un guió per allunyar la imatge; o en les fletxes verdes per a mapes adjacents.


METAR-TAF: